Time;durP1;ratioP1;P1;durP2;ratioP2;P2;SDS_P1;SDS_P2;PMS_P1;PMS_P2;Temp;Humidity;BMP_temperature;BMP_pressure;BME280_temperature;BME280_humidity;BME280_pressure;Samples;Min_cycle;Max_cycle;Signal;HPM_P1;HPM_P2
2022/03/06 00:01:27;;;;;;;58.90;39.67;;;;;;;;;;4974573;28;20081;-64
2022/03/06 00:03:54;;;;;;;66.60;42.75;;;;;;;;;;4975008;28;20401;-64
2022/03/06 00:06:20;;;;;;;66.80;43.88;;;;;;;;;;4974846;28;20026;-63
2022/03/06 00:08:46;;;;;;;65.55;42.28;;;;;;;;;;4975147;28;20386;-63
2022/03/06 00:11:13;;;;;;;63.03;41.33;;;;;;;;;;4974721;28;20489;-63
2022/03/06 00:13:39;;;;;;;63.08;41.25;;;;;;;;;;4974826;28;20031;-64
2022/03/06 00:16:05;;;;;;;72.53;45.08;;;;;;;;;;4974890;28;20022;-64
2022/03/06 00:18:32;;;;;;;65.70;43.20;;;;;;;;;;4974854;28;20023;-64
2022/03/06 00:20:59;;;;;;;60.28;41.72;;;205.20;2252.80;;;;;;4974715;28;20027;-63
2022/03/06 00:23:25;;;;;;;68.38;45.78;;;205.20;2252.80;;;;;;4974546;28;20110;-63
2022/03/06 00:25:51;;;;;;;63.03;45.15;;;205.00;2252.80;;;;;;4957188;28;20022;-64
2022/03/06 00:28:16;;;;;;;86.20;55.47;;;205.20;2252.80;;;;;;4974464;28;20038;-63
2022/03/06 00:30:42;;;;;;;87.00;56.30;;;205.20;2252.80;;;;;;4974363;28;20043;-64
2022/03/06 00:33:08;;;;;;;81.68;53.47;;;205.10;2252.80;;;;;;4974619;28;20047;-65
2022/03/06 00:35:34;;;;;;;64.15;43.45;;;;;;;;;;4974363;28;20027;-64
2022/03/06 00:38:01;;;;;;;65.20;42.72;;;;;;;;;;4956866;28;20374;-65
2022/03/06 00:40:27;;;;;;;69.22;44.25;;;;;;;;;;4974555;28;20109;-63
2022/03/06 00:42:53;;;;;;;66.70;44.58;;;;;;;;;;4974570;28;20023;-64
2022/03/06 00:45:19;;;;;;;71.07;45.55;;;;;;;;;;4974287;28;20109;-63
2022/03/06 00:47:45;;;;;;;70.75;46.15;;;;;;;;;;4974288;28;20089;-63
2022/03/06 00:50:11;;;;;;;69.63;44.90;;;;;;;;;;4974217;28;20062;-63
2022/03/06 00:52:39;;;;;;;77.05;50.10;;;;;;;;;;4974164;28;20030;-64
2022/03/06 00:55:06;;;;;;;79.70;51.05;;;180.10;2252.80;;;;;;4974271;28;20037;-65
2022/03/06 00:57:31;;;;;;;86.32;55.80;;;204.80;2252.80;;;;;;4973864;28;20131;-63
2022/03/06 00:59:57;;;;;;;88.60;56.17;;;180.10;2252.80;;;;;;4974246;28;20121;-64
2022/03/06 01:02:23;;;;;;;91.03;58.60;;;204.90;2252.80;;;;;;4975962;28;20488;-64
2022/03/06 01:04:49;;;;;;;127.13;84.03;;;204.80;2252.80;;;;;;4978306;28;20059;-63
2022/03/06 01:07:15;;;;;;;200.63;135.65;;;204.80;2252.80;;;;;;4978123;28;20035;-64
2022/03/06 01:09:40;;;;;;;187.27;128.65;;;204.90;2252.80;;;;;;4977905;28;20166;-64
2022/03/06 01:12:07;;;;;;;163.13;110.82;;;204.90;2252.80;;;;;;4978049;28;20034;-63
2022/03/06 01:14:32;;;;;;;92.65;58.90;;;204.80;2252.80;;;;;;4977925;28;20030;-64
2022/03/06 01:16:58;;;;;;;128.93;84.65;;;205.10;2252.80;;;;;;4977997;28;20031;-64
2022/03/06 01:19:24;;;;;;;128.68;87.82;;;204.90;2252.80;;;;;;4977876;28;20102;-64
2022/03/06 01:21:50;;;;;;;138.07;92.88;;;204.90;2252.80;;;;;;4977707;28;20492;-65
2022/03/06 01:24:16;;;;;;;179.02;117.13;;;204.90;2252.80;;;;;;4977573;28;20038;-64
2022/03/06 01:26:41;;;;;;;148.18;98.40;;;204.80;2252.80;;;;;;4977645;28;20472;-63
2022/03/06 01:29:07;;;;;;;169.63;109.60;;;204.90;2252.80;;;;;;4977937;28;20041;-64
2022/03/06 01:31:33;;;;;;;139.50;91.38;;;204.90;2252.80;;;;;;4977733;28;20035;-64
2022/03/06 01:33:59;;;;;;;130.02;81.93;;;205.10;2252.80;;;;;;4977858;28;20419;-63
2022/03/06 01:36:24;;;;;;;155.38;98.15;;;205.20;2252.80;;;;;;4977647;28;20397;-66
2022/03/06 01:38:50;;;;;;;121.55;78.30;;;205.10;2252.80;;;;;;4977301;28;20027;-64
2022/03/06 01:41:17;;;;;;;164.23;103.25;;;205.10;2252.80;;;;;;4977621;28;20037;-64
2022/03/06 01:43:43;;;;;;;190.02;118.82;;;205.10;2252.80;;;;;;4977523;28;20121;-64
2022/03/06 01:46:09;;;;;;;150.68;97.10;;;;;;;;;;4977480;28;20050;-64
2022/03/06 01:48:35;;;;;;;89.65;59.92;;;;;;;;;;4977347;28;20071;-64
2022/03/06 01:51:01;;;;;;;96.07;66.60;;;205.40;2252.80;;;;;;4977245;28;20039;-64
2022/03/06 01:53:27;;;;;;;101.28;71.80;;;;;;;;;;4977277;28;20030;-65
2022/03/06 01:55:52;;;;;;;96.35;62.17;;;205.20;2252.80;;;;;;4959502;28;20035;-64
2022/03/06 01:58:18;;;;;;;81.30;55.92;;;205.20;2252.80;;;;;;4976863;28;20038;-63
2022/03/06 02:00:49;;;;;;;87.20;60.55;;;205.20;2252.80;;;;;;4977231;28;20082;-64
2022/03/06 02:03:16;;;;;;;86.03;59.65;;;205.10;2252.80;;;;;;4977117;28;20437;-64
2022/03/06 02:05:43;;;;;;;78.55;52.78;;;180.10;2252.80;;;;;;4977129;28;20089;-63
2022/03/06 02:08:12;;;;;;;82.50;57.50;;;180.10;2252.80;;;;;;4977189;28;20030;-65
2022/03/06 02:10:38;;;;;;;81.55;56.40;;;205.00;2252.80;;;;;;4976753;28;20045;-64
2022/03/06 02:13:05;;;;;;;81.53;55.50;;;204.80;2252.80;;;;;;4975939;28;20027;-65
2022/03/06 02:15:31;;;;;;;80.63;54.00;;;204.80;2252.80;;;;;;4959464;28;20030;-65
2022/03/06 02:17:57;;;;;;;84.22;60.00;;;180.10;2252.80;;;;;;4976942;28;20023;-65
2022/03/06 02:20:24;;;;;;;72.20;48.55;;;180.10;2252.80;;;;;;4976878;28;20035;-65
2022/03/06 02:22:56;;;;;;;71.15;49.35;;;205.00;2252.80;;;;;;4976790;28;20033;-66
2022/03/06 02:25:33;;;;;;;86.78;60.67;;;205.20;2252.80;;;;;;4976627;28;20492;-65
2022/03/06 02:28:01;;;;;;;90.90;68.05;;;205.10;2252.80;;;;;;4976550;28;20093;-65
2022/03/06 02:30:30;;;;;;;101.15;70.13;;;205.00;2252.80;;;;;;4976799;28;20043;-65
2022/03/06 02:32:58;;;;;;;87.88;63.67;;;204.80;2252.80;;;;;;4976479;28;20023;-65
2022/03/06 02:35:24;;;;;;;88.45;63.22;;;180.10;2252.80;;;;;;4976512;28;20031;-63
2022/03/06 02:37:50;;;;;;;77.82;51.90;;;180.10;2252.80;;;;;;4976367;28;20051;-64
2022/03/06 02:40:18;;;;;;;83.22;58.30;;;204.80;2252.80;;;;;;4976353;28;20035;-65
2022/03/06 02:42:45;;;;;;;72.18;50.33;;;;;;;;;;4976824;28;20023;-66
2022/03/06 02:45:12;;;;;;;75.55;48.88;;;;;;;;;;4976336;28;20019;-64
2022/03/06 02:47:39;;;;;;;79.15;52.95;;;205.30;2252.80;;;;;;4976351;28;20033;-65
2022/03/06 02:50:08;;;;;;;69.18;47.72;;;205.30;2252.80;;;;;;4974853;28;20150;-65
2022/03/06 02:52:33;;;;;;;58.75;42.90;;;205.20;2252.80;;;;;;4976216;28;20058;-65
2022/03/06 02:55:00;;;;;;;56.95;40.13;;;205.20;2252.80;;;;;;4976287;28;20178;-65
2022/03/06 02:57:26;;;;;;;60.55;43.47;;;204.90;2252.80;;;;;;4975940;28;20034;-64
2022/03/06 02:59:51;;;;;;;60.65;44.88;;;204.80;2252.80;;;;;;4976314;28;20049;-63
2022/03/06 03:02:18;;;;;;;49.92;37.15;;;;;;;;;;4976071;28;20390;-65
2022/03/06 03:04:44;;;;;;;53.22;37.65;;;;;;;;;;4976026;28;20041;-65
2022/03/06 03:07:10;;;;;;;50.13;35.00;;;;;;;;;;4975810;28;20019;-64
2022/03/06 03:09:36;;;;;;;50.45;34.92;;;;;;;;;;4975761;28;20034;-65
2022/03/06 03:12:03;;;;;;;42.97;30.73;;;;;;;;;;4975952;28;20034;-65
2022/03/06 03:14:32;;;;;;;48.85;35.38;;;;;;;;;;4975747;28;20485;-66
2022/03/06 03:16:59;;;;;;;44.63;33.67;;;179.90;2252.80;;;;;;4975840;28;20063;-65
2022/03/06 03:19:25;;;;;;;45.95;32.72;;;180.00;2252.80;;;;;;4975617;28;20023;-66
2022/03/06 03:21:51;;;;;;;46.35;32.45;;;180.10;2252.80;;;;;;4975562;28;20027;-64
2022/03/06 03:24:17;;;;;;;42.88;31.38;;;179.90;2252.80;;;;;;4975150;28;20027;-63
2022/03/06 03:26:42;;;;;;;43.03;30.50;;;180.00;2252.80;;;;;;4958320;28;20027;-64
2022/03/06 03:29:08;;;;;;;43.15;31.00;;;180.00;2252.80;;;;;;4975595;28;20031;-64
2022/03/06 03:31:34;;;;;;;45.15;31.40;;;180.10;2252.80;;;;;;4975459;28;20129;-64
2022/03/06 03:33:59;;;;;;;42.80;31.33;;;180.10;2252.80;;;;;;4975444;28;20034;-65
2022/03/06 03:36:25;;;;;;;42.08;31.38;;;180.10;2252.80;;;;;;4975341;28;20055;-64
2022/03/06 03:38:51;;;;;;;42.38;30.52;;;180.10;2252.80;;;;;;4975349;28;20081;-63
2022/03/06 03:41:17;;;;;;;42.50;31.58;;;180.00;2252.80;;;;;;4957704;28;20446;-65
2022/03/06 03:43:43;;;;;;;48.20;32.92;;;;;;;;;;4975503;28;20027;-65
2022/03/06 03:46:09;;;;;;;45.20;31.42;;;;;;;;;;4975298;28;20051;-65
2022/03/06 03:48:36;;;;;;;41.58;29.23;;;;;;;;;;4975200;28;20446;-65
2022/03/06 03:51:02;;;;;;;42.78;31.65;;;;;;;;;;4975058;28;20075;-66
2022/03/06 03:53:28;;;;;;;39.90;28.23;;;;;;;;;;4974979;28;20389;-66
2022/03/06 03:55:54;;;;;;;39.20;29.38;;;;;;;;;;4974923;28;20023;-66
2022/03/06 03:58:20;;;;;;;38.10;28.08;;;;;;;;;;4974615;28;20071;-65
2022/03/06 04:00:54;;;;;;;41.53;29.05;;;;;;;;;;4974960;28;20042;-65
2022/03/06 04:03:20;;;;;;;41.00;28.73;;;;;;;;;;4974993;28;20478;-65
2022/03/06 04:05:46;;;;;;;37.95;27.27;;;;;;;;;;4974957;28;20041;-64
2022/03/06 04:08:12;;;;;;;38.45;27.77;;;;;;;;;;4974886;28;20190;-61
2022/03/06 04:10:38;;;;;;;42.80;28.83;;;;;;;;;;4974596;28;20066;-62
2022/03/06 04:13:05;;;;;;;36.97;26.77;;;;;;;;;;4974818;28;20544;-64
2022/03/06 04:15:31;;;;;;;43.33;30.40;;;;;;;;;;4974697;28;20039;-64
2022/03/06 04:17:57;;;;;;;39.80;28.52;;;;;;;;;;4974794;28;20034;-64
2022/03/06 04:20:24;;;;;;;53.63;35.70;;;;;;;;;;4974915;28;20022;-63
2022/03/06 04:22:50;;;;;;;42.15;30.35;;;;;;;;;;4974584;28;20110;-63
2022/03/06 04:25:16;;;;;;;40.03;29.30;;;;;;;;;;4974568;28;20023;-63
2022/03/06 04:27:42;;;;;;;40.00;29.45;;;179.90;2252.80;;;;;;4974400;28;20031;-63
2022/03/06 04:30:08;;;;;;;38.67;28.38;;;204.80;2252.80;;;;;;4974557;28;20074;-63
2022/03/06 04:32:34;;;;;;;40.75;29.70;;;204.80;2252.80;;;;;;4974887;28;20034;-63
2022/03/06 04:35:00;;;;;;;41.38;29.33;;;180.10;2252.80;;;;;;4974404;28;20031;-62
2022/03/06 04:37:26;;;;;;;38.00;27.65;;;;;;;;;;4973932;28;20030;-64
2022/03/06 04:39:52;;;;;;;40.05;28.42;;;179.80;2252.80;;;;;;4974515;28;20049;-64
2022/03/06 04:42:18;;;;;;;40.60;28.30;;;179.90;2252.80;;;;;;4974431;28;20469;-63
2022/03/06 04:44:44;;;;;;;45.72;30.08;;;180.00;2252.80;;;;;;4974585;28;20030;-64
2022/03/06 04:47:09;;;;;;;37.92;27.98;;;179.90;2252.80;;;;;;4974355;28;20031;-64
2022/03/06 04:49:36;;;;;;;40.92;29.60;;;180.00;2252.80;;;;;;4974207;28;20477;-64
2022/03/06 04:52:02;;;;;;;39.08;27.48;;;180.00;2252.80;;;;;;4974146;28;20067;-64
2022/03/06 04:54:28;;;;;;;36.03;26.65;;;;;;;;;;4974267;28;20429;-64
2022/03/06 04:56:54;;;;;;;38.03;27.17;;;;;;;;;;4973962;28;20038;-62
2022/03/06 04:59:20;;;;;;;38.15;27.90;;;;;;;;;;4973937;28;20047;-63
2022/03/06 05:01:46;;;;;;;37.72;27.33;;;;;;;;;;4974272;28;20092;-64
2022/03/06 05:04:12;;;;;;;35.22;26.23;;;179.90;2252.80;;;;;;4974226;28;20033;-64
2022/03/06 05:06:38;;;;;;;34.90;25.38;;;179.80;2252.80;;;;;;4972541;28;20397;-64
2022/03/06 05:09:03;;;;;;;36.97;26.77;;;179.70;2252.80;;;;;;4973979;28;20023;-65
2022/03/06 05:11:29;;;;;;;36.08;26.52;;;179.90;2252.80;;;;;;4973951;28;20500;-64
2022/03/06 05:13:55;;;;;;;37.97;27.08;;;179.80;2252.80;;;;;;4974277;28;20029;-65
2022/03/06 05:16:21;;;;;;;36.80;27.77;;;179.80;2252.80;;;;;;4974031;28;20035;-65
2022/03/06 05:18:47;;;;;;;33.80;26.48;;;180.10;2252.80;;;;;;4974084;28;20154;-67
2022/03/06 05:21:13;;;;;;;30.38;23.10;;;;;;;;;;4974024;28;20083;-64
2022/03/06 05:23:39;;;;;;;32.42;24.38;;;;;;;;;;4973834;28;20035;-65
2022/03/06 05:26:05;;;;;;;35.67;24.58;;;180.10;2252.80;;;;;;4973920;28;20046;-64
2022/03/06 05:28:30;;;;;;;33.15;24.02;;;204.80;2252.80;;;;;;4973966;28;20031;-64
2022/03/06 05:30:56;;;;;;;38.28;25.90;;;180.10;2252.80;;;;;;4973995;28;20400;-65
2022/03/06 05:33:23;;;;;;;33.67;23.85;;;204.80;2252.80;;;;;;4956798;28;20057;-64
2022/03/06 05:35:49;;;;;;;31.38;23.20;;;180.10;2252.80;;;;;;4973837;28;20027;-65
2022/03/06 05:38:15;;;;;;;36.75;24.88;;;180.10;2252.80;;;;;;4973785;28;20023;-65
2022/03/06 05:40:41;;;;;;;33.00;24.40;;;179.90;2252.80;;;;;;4973710;28;20035;-66
2022/03/06 05:43:06;;;;;;;34.38;25.45;;;179.80;2252.80;;;;;;4973818;28;20058;-66
2022/03/06 05:45:32;;;;;;;32.15;22.95;;;179.80;2252.80;;;;;;4973835;28;20101;-65
2022/03/06 05:47:58;;;;;;;33.88;23.05;;;180.00;2252.80;;;;;;4975042;28;20027;-63
2022/03/06 05:50:24;;;;;;;35.90;25.35;;;180.00;2252.80;;;;;;4977357;28;20089;-65
2022/03/06 05:52:50;;;;;;;34.53;24.85;;;179.70;2252.80;;;;;;4977297;28;20485;-65
2022/03/06 05:55:16;;;;;;;31.77;23.42;;;179.80;2252.80;;;;;;4977167;28;20031;-64
2022/03/06 05:57:42;;;;;;;35.35;24.67;;;179.80;2252.80;;;;;;4976885;28;20089;-65
2022/03/06 06:00:08;;;;;;;37.25;25.52;;;179.80;2252.80;;;;;;4977144;28;20146;-65
2022/03/06 06:02:38;;;;;;;36.53;25.85;;;179.90;2252.80;;;;;;4977176;28;20405;-65
2022/03/06 06:05:06;;;;;;;35.50;25.20;;;;;;;;;;4977182;28;20481;-65
2022/03/06 06:07:32;;;;;;;38.05;27.95;;;179.80;2252.80;;;;;;4977115;28;20027;-65
2022/03/06 06:09:58;;;;;;;32.88;24.95;;;180.00;2252.80;;;;;;4976872;28;20023;-65
2022/03/06 06:12:23;;;;;;;33.50;25.20;;;179.90;2252.80;;;;;;4977101;28;20038;-65
2022/03/06 06:14:49;;;;;;;32.97;24.05;;;179.90;2252.80;;;;;;4977186;28;20023;-66
2022/03/06 06:17:15;;;;;;;36.13;24.15;;;180.00;2252.80;;;;;;4976890;28;20035;-64
2022/03/06 06:19:41;;;;;;;36.38;26.20;;;179.90;2252.80;;;;;;4976967;28;20117;-65
2022/03/06 06:22:07;;;;;;;44.03;29.38;;;180.00;2252.80;;;;;;4976948;28;20022;-65
2022/03/06 06:24:33;;;;;;;40.50;27.40;;;179.80;2252.80;;;;;;4976668;28;20082;-65
2022/03/06 06:26:59;;;;;;;37.42;26.08;;;179.70;2252.80;;;;;;4976555;28;20425;-65
2022/03/06 06:29:25;;;;;;;43.67;28.95;;;179.90;2252.80;;;;;;4976721;28;20035;-65
2022/03/06 06:31:52;;;;;;;51.25;32.78;;;;;;;;;;4976482;28;20097;-66
2022/03/06 06:34:19;;;;;;;41.13;28.27;;;179.70;2252.80;;;;;;4976630;28;20026;-66
2022/03/06 06:36:45;;;;;;;42.28;31.13;;;179.90;2252.80;;;;;;4976465;28;20413;-64
2022/03/06 06:39:11;;;;;;;77.78;58.08;;;179.90;2252.80;;;;;;4976404;28;20037;-66
2022/03/06 06:41:40;;;;;;;52.63;40.42;;;179.90;2252.80;;;;;;4976431;28;20030;-65
2022/03/06 06:44:07;;;;;;;56.22;44.83;;;179.90;2252.80;;;;;;4976421;28;20050;-65
2022/03/06 06:46:33;;;;;;;47.95;34.85;;;179.80;2252.80;;;;;;4976416;28;20480;-65
2022/03/06 06:48:59;;;;;;;40.88;29.67;;;179.70;2252.80;;;;;;4976237;28;20026;-64
2022/03/06 06:51:25;;;;;;;58.78;42.40;;;179.80;2252.80;;;;;;4976179;28;20048;-64
2022/03/06 06:53:51;;;;;;;44.80;33.47;;;179.70;2252.80;;;;;;4976084;28;20019;-63
2022/03/06 06:56:16;;;;;;;36.92;27.50;;;179.80;2252.80;;;;;;4976001;28;20030;-63
2022/03/06 06:58:43;;;;;;;46.22;31.63;;;;;;;;;;4975865;28;20119;-65
2022/03/06 07:01:09;;;;;;;50.08;33.72;;;;;;;;;;4975451;28;20031;-65
2022/03/06 07:03:35;;;;;;;50.03;35.17;;;;;;;;;;4976039;28;20111;-65
2022/03/06 07:06:01;;;;;;;53.70;37.33;;;;;;;;;;4975893;28;20041;-65
2022/03/06 07:08:27;;;;;;;53.85;37.45;;;179.70;2252.80;;;;;;4975942;28;20027;-65
2022/03/06 07:10:52;;;;;;;51.55;35.60;;;179.60;2252.80;;;;;;4975751;28;20042;-65
2022/03/06 07:13:18;;;;;;;84.38;58.78;;;179.60;2252.80;;;;;;4975681;28;20520;-65
2022/03/06 07:15:44;;;;;;;53.40;37.75;;;179.70;2252.80;;;;;;4975772;28;20023;-65
2022/03/06 07:18:09;;;;;;;50.63;35.65;;;179.80;2252.80;;;;;;4976046;28;20027;-65
2022/03/06 07:20:35;;;;;;;62.95;44.70;;;179.80;2252.80;;;;;;4975800;28;20243;-65
2022/03/06 07:23:01;;;;;;;55.83;40.90;;;179.80;2252.80;;;;;;4975790;28;20014;-64
2022/03/06 07:25:27;;;;;;;51.97;40.45;;;179.80;2252.80;;;;;;4975565;28;20536;-65
2022/03/06 07:27:53;;;;;;;41.45;31.90;;;179.80;2252.80;;;;;;4973706;28;20039;-65
2022/03/06 07:30:19;;;;;;;39.25;28.27;;;179.70;2252.80;;;;;;4975546;28;20114;-66
2022/03/06 07:32:46;;;;;;;39.25;28.85;;;179.90;2252.80;;;;;;4975355;28;20029;-66
2022/03/06 07:35:13;;;;;;;47.33;32.53;;;180.00;2252.80;;;;;;4975380;28;20038;-67
2022/03/06 07:37:39;;;;;;;45.22;33.42;;;180.00;2252.80;;;;;;4975291;28;20027;-66
2022/03/06 07:40:06;;;;;;;36.95;26.73;;;179.90;2252.80;;;;;;4975124;28;20034;-66
2022/03/06 07:42:31;;;;;;;44.88;32.22;;;179.80;2252.80;;;;;;4975252;28;20111;-65
2022/03/06 07:44:58;;;;;;;42.13;29.27;;;180.00;2252.80;;;;;;4975444;28;20052;-67
2022/03/06 07:47:23;;;;;;;59.20;39.45;;;180.00;2252.80;;;;;;4975192;28;20110;-66
2022/03/06 07:49:49;;;;;;;39.28;30.50;;;180.10;2252.80;;;;;;4975115;28;20126;-67
2022/03/06 07:52:15;;;;;;;40.42;28.45;;;180.10;2252.80;;;;;;4975100;28;20053;-66
2022/03/06 07:54:40;;;;;;;42.22;32.33;;;180.00;2252.80;;;;;;4975078;28;20034;-67
2022/03/06 07:57:06;;;;;;;35.33;24.98;;;180.10;2252.80;;;;;;4974693;28;20031;-67
2022/03/06 07:59:32;;;;;;;44.33;30.25;;;180.10;2252.80;;;;;;4975058;28;20038;-65
2022/03/06 08:01:57;;;;;;;58.55;37.20;;;180.10;2252.80;;;;;;4975103;28;20042;-66
2022/03/06 08:04:23;;;;;;;48.72;32.78;;;180.10;2252.80;;;;;;4975012;28;20031;-66
2022/03/06 08:06:49;;;;;;;42.97;31.70;;;180.00;2252.80;;;;;;4974937;28;20031;-64
2022/03/06 08:09:15;;;;;;;38.63;27.02;;;180.00;2252.80;;;;;;4974717;28;20469;-64
2022/03/06 08:11:41;;;;;;;43.40;30.83;;;180.00;2252.80;;;;;;4974472;28;20396;-65
2022/03/06 08:14:07;;;;;;;57.25;40.00;;;180.00;2252.80;;;;;;4974759;28;20027;-63
2022/03/06 08:16:33;;;;;;;68.57;40.13;;;180.10;2252.80;;;;;;4974633;28;20053;-64
2022/03/06 08:18:59;;;;;;;65.70;41.70;;;;;;;;;;4974668;28;20106;-65
2022/03/06 08:21:25;;;;;;;53.67;35.50;;;205.00;2252.80;;;;;;4974558;28;20026;-64
2022/03/06 08:23:51;;;;;;;65.57;38.65;;;205.10;2252.80;;;;;;4974708;28;20032;-64
2022/03/06 08:26:17;;;;;;;81.18;48.47;;;204.80;2252.80;;;;;;4974351;28;20026;-64
2022/03/06 08:28:43;;;;;;;68.50;45.50;;;204.80;2252.80;;;;;;4974339;28;20106;-65
2022/03/06 08:31:10;;;;;;;55.58;37.33;;;180.10;2252.80;;;;;;4974419;28;20549;-64
2022/03/06 08:33:35;;;;;;;37.47;26.45;;;204.80;2252.80;;;;;;4974429;28;20019;-65
2022/03/06 08:36:02;;;;;;;38.70;27.00;;;180.10;2252.80;;;;;;4973231;28;20114;-66
2022/03/06 08:38:28;;;;;;;43.55;30.17;;;180.10;2252.80;;;;;;4974617;28;20022;-65
2022/03/06 08:40:53;;;;;;;36.88;26.67;;;180.10;2252.80;;;;;;4974497;28;20027;-63
2022/03/06 08:43:19;;;;;;;36.85;26.75;;;180.00;2252.80;;;;;;4974332;28;20034;-64
2022/03/06 08:45:45;;;;;;;34.72;26.25;;;180.00;2252.80;;;;;;4974469;28;20023;-64
2022/03/06 08:48:11;;;;;;;36.05;25.23;;;180.10;2252.80;;;;;;4974274;28;20038;-63
2022/03/06 08:50:36;;;;;;;33.20;23.70;;;180.10;2252.80;;;;;;4974560;28;20045;-63
2022/03/06 08:53:02;;;;;;;36.58;25.27;;;204.80;2252.80;;;;;;4974401;28;20484;-63
2022/03/06 08:55:29;;;;;;;66.20;44.28;;;180.10;2252.80;;;;;;4974276;28;20026;-66
2022/03/06 08:57:54;;;;;;;78.15;51.10;;;204.80;2252.80;;;;;;4973749;28;20049;-67
2022/03/06 09:00:20;;;;;;;58.75;39.00;;;180.10;2252.80;;;;;;4974176;28;20102;-66
2022/03/06 09:02:46;;;;;;;60.42;38.58;;;180.10;2252.80;;;;;;4974410;28;20047;-66
2022/03/06 09:05:12;;;;;;;170.73;92.15;;;204.90;2252.80;;;;;;4974026;28;20093;-64
2022/03/06 09:07:37;;;;;;;75.95;45.78;;;204.80;2252.80;;;;;;4974086;28;20023;-63
2022/03/06 09:10:04;;;;;;;53.33;36.33;;;205.00;2252.80;;;;;;4973893;28;20045;-63
2022/03/06 09:12:30;;;;;;;56.42;37.90;;;204.80;2252.80;;;;;;4973727;28;20090;-64
2022/03/06 09:14:56;;;;;;;45.53;31.63;;;;;;;;;;4973972;28;20027;-66
2022/03/06 09:17:22;;;;;;;49.38;32.63;;;180.00;2252.80;;;;;;4973756;28;20122;-66
2022/03/06 09:19:49;;;;;;;60.70;38.55;;;180.00;2252.80;;;;;;4974085;28;20107;-66
2022/03/06 09:22:14;;;;;;;68.38;40.88;;;204.80;2252.80;;;;;;4974216;28;20074;-66
2022/03/06 09:24:40;;;;;;;61.92;39.55;;;204.90;2252.80;;;;;;4977722;28;20030;-66
2022/03/06 09:27:06;;;;;;;60.53;42.22;;;204.80;2252.80;;;;;;4977471;28;20030;-65
2022/03/06 09:29:31;;;;;;;40.40;28.77;;;204.90;2252.80;;;;;;4977630;28;20043;-66
2022/03/06 09:31:57;;;;;;;45.25;33.10;;;204.80;2252.80;;;;;;4977666;28;20105;-67
2022/03/06 09:34:23;;;;;;;47.33;33.03;;;204.90;2252.80;;;;;;4977566;28;20023;-66
2022/03/06 09:36:49;;;;;;;44.38;28.33;;;204.90;2252.80;;;;;;4977659;28;20031;-66
2022/03/06 09:39:15;;;;;;;77.88;50.53;;;180.10;2252.80;;;;;;4959847;28;20122;-65
2022/03/06 09:41:41;;;;;;;64.40;49.13;;;180.00;2252.80;;;;;;4977468;28;20026;-65
2022/03/06 09:44:08;;;;;;;62.97;48.70;;;180.10;2252.80;;;;;;4977208;28;20035;-65
2022/03/06 09:46:35;;;;;;;32.33;26.15;;;204.80;2252.80;;;;;;4977072;28;20106;-62
2022/03/06 09:49:04;;;;;;;38.38;28.80;;;180.10;2252.80;;;;;;4977335;28;20030;-61
2022/03/06 09:51:34;;;;;;;39.25;32.67;;;180.00;2252.80;;;;;;4977319;28;20564;-63
2022/03/06 09:54:00;;;;;;;55.17;45.33;;;180.10;2252.80;;;;;;4976870;28;20054;-64
2022/03/06 09:56:26;;;;;;;34.78;28.15;;;179.90;2252.80;;;;;;4977125;28;20065;-66
2022/03/06 09:58:52;;;;;;;59.13;49.28;;;180.10;2252.80;;;;;;4976732;28;20074;-65
2022/03/06 10:01:17;;;;;;;41.40;32.35;;;204.90;2252.80;;;;;;4977194;28;20065;-65
2022/03/06 10:03:43;;;;;;;54.70;41.33;;;204.80;2252.80;;;;;;4977143;28;20035;-65
2022/03/06 10:06:11;;;;;;;43.67;32.22;;;205.00;2252.80;;;;;;4977096;28;20037;-64
2022/03/06 10:08:37;;;;;;;47.97;38.15;;;;;;;;;;4977005;28;20050;-64
2022/03/06 10:11:04;;;;;;;46.80;35.03;;;;;;;;;;4977007;28;20058;-64
2022/03/06 10:13:32;;;;;;;89.00;63.22;;;;;;;;;;4976597;28;20058;-66
2022/03/06 10:16:16;;;;;;;42.03;28.00;;;179.70;2252.80;;;;;;4976787;28;20027;-65
2022/03/06 10:18:44;;;;;;;71.28;45.25;;;179.70;2252.80;;;;;;4976864;28;20027;-66
2022/03/06 10:21:11;;;;;;;100.43;63.13;;;179.60;2252.80;;;;;;4976680;28;20038;-64
2022/03/06 10:23:38;;;;;;;99.10;61.85;;;;;;;;;;4976630;28;20066;-64
2022/03/06 10:26:10;;;;;;;63.47;41.80;;;180.00;2252.80;;;;;;4976428;28;20031;-64
2022/03/06 10:28:55;;;;;;;75.57;47.65;;;180.10;2252.80;;;;;;4976442;28;20034;-64
2022/03/06 10:31:22;;;;;;;78.55;56.22;;;180.00;2252.80;;;;;;4975334;28;20077;-65
2022/03/06 10:33:55;;;;;;;109.85;75.32;;;;;;;;;;4975952;28;20077;-65
2022/03/06 10:36:29;;;;;;;48.75;37.13;;;;;;;;;;4975904;28;20045;-66
2022/03/06 10:38:55;;;;;;;51.63;38.22;;;;;;;;;;4976302;28;20478;-66
2022/03/06 10:41:21;;;;;;;76.63;48.10;;;;;;;;;;4976469;28;20026;-63
2022/03/06 10:43:49;;;;;;;32.95;23.27;;;;;;;;;;4976021;28;20026;-64
2022/03/06 10:46:19;;;;;;;47.42;30.70;;;;;;;;;;4976413;28;20089;-64
2022/03/06 10:48:59;;;;;;;40.63;29.00;;;;;;;;;;4976253;28;20547;-62
2022/03/06 10:51:25;;;;;;;69.53;43.65;;;;;;;;;;4975810;28;20502;-63
2022/03/06 10:53:59;;;;;;;53.13;32.80;;;;;;;;;;4975945;28;20030;-63
2022/03/06 10:56:25;;;;;;;38.00;24.65;;;;;;;;;;4975919;28;20039;-65
2022/03/06 10:58:52;;;;;;;55.83;36.33;;;;;;;;;;4975543;28;20202;-63
2022/03/06 11:01:18;;;;;;;65.32;46.17;;;;;;;;;;4958646;28;20508;-63
2022/03/06 11:03:50;;;;;;;62.63;48.67;;;;;;;;;;4975641;28;20026;-64
2022/03/06 11:06:18;;;;;;;44.38;34.03;;;;;;;;;;4958522;28;20038;-63
2022/03/06 11:08:45;;;;;;;43.50;34.95;;;;;;;;;;4976145;28;20023;-64
2022/03/06 11:11:22;;;;;;;37.35;30.13;;;;;;;;;;4975156;28;20052;-63
2022/03/06 11:13:48;;;;;;;30.52;21.10;;;;;;;;;;4957827;28;20034;-64
2022/03/06 11:16:20;;;;;;;30.90;22.52;;;;;;;;;;4975380;28;20081;-62
2022/03/06 11:18:56;;;;;;;42.28;28.58;;;205.00;2252.80;;;;;;4958545;28;20089;-63
2022/03/06 11:21:24;;;;;;;34.67;24.27;;;205.00;2252.80;;;;;;4973058;28;20034;-63
2022/03/06 11:23:52;;;;;;;38.80;29.60;;;180.10;2252.80;;;;;;4957551;28;20057;-63
2022/03/06 11:26:18;;;;;;;62.25;39.80;;;180.10;2252.80;;;;;;4974412;28;20062;-63
2022/03/06 11:28:44;;;;;;;49.70;34.08;;;;;;;;;;4975178;28;20058;-62
2022/03/06 11:31:13;;;;;;;39.03;29.45;;;205.00;2252.80;;;;;;4957912;28;20030;-63
2022/03/06 11:33:44;;;;;;;34.33;26.63;;;205.10;2252.80;;;;;;4974843;28;20027;-63
2022/03/06 11:36:23;;;;;;;53.58;35.90;;;205.20;2252.80;;;;;;4957451;28;20038;-64
2022/03/06 11:38:53;;;;;;;68.40;38.25;;;205.20;2252.80;;;;;;4974102;28;20027;-64
2022/03/06 11:41:24;;;;;;;57.65;35.83;;;205.00;2252.80;;;;;;4973759;28;20532;-64
2022/03/06 11:43:51;;;;;;;92.38;51.70;;;204.80;2252.80;;;;;;4975205;28;20030;-63
2022/03/06 11:46:24;;;;;;;54.88;32.08;;;205.10;2252.80;;;;;;4957634;28;20034;-66
2022/03/06 11:48:53;;;;;;;72.00;41.83;;;180.10;2252.80;;;;;;4975483;28;20058;-63
2022/03/06 11:51:27;;;;;;;86.80;50.80;;;180.10;2252.80;;;;;;4975322;28;20046;-62
2022/03/06 11:53:55;;;;;;;59.97;37.08;;;205.00;2252.80;;;;;;4973685;28;20043;-64
2022/03/06 11:56:37;;;;;;;53.78;33.75;;;204.80;2252.80;;;;;;4957425;28;20045;-63
2022/03/06 11:59:10;;;;;;;61.88;39.45;;;179.90;2252.80;;;;;;4974652;28;20457;-65
2022/03/06 12:01:54;;;;;;;45.28;29.20;;;180.00;2252.80;;;;;;4974828;28;20025;-64
2022/03/06 12:04:35;;;;;;;44.80;31.20;;;180.00;2252.80;;;;;;4974795;28;20037;-63
2022/03/06 12:07:03;;;;;;;36.90;25.50;;;179.90;2252.80;;;;;;4974719;28;20034;-63
2022/03/06 12:09:30;;;;;;;24.80;17.65;;;;;;;;;;4974886;28;20046;-65
2022/03/06 12:12:03;;;;;;;32.63;23.17;;;179.60;2252.80;;;;;;4974489;28;20039;-64
2022/03/06 12:14:37;;;;;;;55.10;36.10;;;179.50;2252.80;;;;;;4957835;28;20015;-65
2022/03/06 12:17:03;;;;;;;36.17;23.85;;;;;;;;;;4974950;28;20038;-64
2022/03/06 12:19:29;;;;;;;52.05;36.33;;;;;;;;;;4974479;28;20019;-66
2022/03/06 12:22:11;;;;;;;66.72;44.25;;;;;;;;;;4973642;28;20030;-66
2022/03/06 12:24:39;;;;;;;43.72;28.73;;;;;;;;;;4974566;28;20438;-66
2022/03/06 12:27:38;;;;;;;58.50;35.65;;;179.60;2252.80;;;;;;4974867;28;20054;-65
2022/03/06 12:30:10;;;;;;;71.38;41.10;;;179.60;2252.80;;;;;;4974073;28;20034;-65
2022/03/06 12:32:38;;;;;;;91.57;59.15;;;179.60;2252.80;;;;;;4973676;28;20058;-64